sensor_id;sensor_type;location;lat;lon;timestamp;P1;durP1;ratioP1;P2;durP2;ratioP2
46318;SDS011;32042;50.916;2.926;2022-08-03T00:02:23;6.88;;;2.00;;
46318;SDS011;32042;50.916;2.926;2022-08-03T00:04:50;6.63;;;1.65;;
46318;SDS011;32042;50.916;2.926;2022-08-03T00:07:16;6.45;;;1.80;;
46318;SDS011;32042;50.916;2.926;2022-08-03T00:09:42;2.97;;;1.60;;
46318;SDS011;32042;50.916;2.926;2022-08-03T00:12:08;3.20;;;1.70;;
46318;SDS011;32042;50.916;2.926;2022-08-03T00:14:34;4.75;;;1.75;;
46318;SDS011;32042;50.916;2.926;2022-08-03T00:17:00;5.82;;;1.65;;
46318;SDS011;32042;50.916;2.926;2022-08-03T00:19:27;5.72;;;1.58;;
46318;SDS011;32042;50.916;2.926;2022-08-03T00:21:53;6.20;;;1.98;;
46318;SDS011;32042;50.916;2.926;2022-08-03T00:24:19;5.95;;;1.85;;
46318;SDS011;32042;50.916;2.926;2022-08-03T00:26:45;3.72;;;1.90;;
46318;SDS011;32042;50.916;2.926;2022-08-03T00:29:11;6.32;;;1.77;;
46318;SDS011;32042;50.916;2.926;2022-08-03T00:31:38;4.80;;;2.40;;
46318;SDS011;32042;50.916;2.926;2022-08-03T00:34:04;6.40;;;2.13;;
46318;SDS011;32042;50.916;2.926;2022-08-03T00:36:30;4.28;;;1.60;;
46318;SDS011;32042;50.916;2.926;2022-08-03T00:38:57;5.50;;;1.83;;
46318;SDS011;32042;50.916;2.926;2022-08-03T00:41:23;3.20;;;1.70;;
46318;SDS011;32042;50.916;2.926;2022-08-03T00:43:49;4.05;;;1.83;;
46318;SDS011;32042;50.916;2.926;2022-08-03T00:46:15;5.15;;;1.92;;
46318;SDS011;32042;50.916;2.926;2022-08-03T00:48:41;5.20;;;2.05;;
46318;SDS011;32042;50.916;2.926;2022-08-03T00:51:07;6.15;;;1.60;;
46318;SDS011;32042;50.916;2.926;2022-08-03T00:53:33;4.75;;;1.73;;
46318;SDS011;32042;50.916;2.926;2022-08-03T00:56:00;7.68;;;2.03;;
46318;SDS011;32042;50.916;2.926;2022-08-03T00:58:26;4.05;;;1.88;;
46318;SDS011;32042;50.916;2.926;2022-08-03T01:00:52;5.30;;;2.08;;
46318;SDS011;32042;50.916;2.926;2022-08-03T01:03:18;2.63;;;1.35;;
46318;SDS011;32042;50.916;2.926;2022-08-03T01:10:53;5.85;;;1.40;;
46318;SDS011;32042;50.916;2.926;2022-08-03T01:13:34;4.00;;;1.33;;
46318;SDS011;32042;50.916;2.926;2022-08-03T01:16:08;5.30;;;1.70;;
46318;SDS011;32042;50.916;2.926;2022-08-03T01:21:25;6.68;;;1.80;;
46318;SDS011;32042;50.916;2.926;2022-08-03T01:24:02;3.15;;;1.73;;
46318;SDS011;32042;50.916;2.926;2022-08-03T01:32:02;6.57;;;1.83;;
46318;SDS011;32042;50.916;2.926;2022-08-03T01:34:31;7.47;;;1.55;;
46318;SDS011;32042;50.916;2.926;2022-08-03T01:36:58;3.85;;;1.58;;
46318;SDS011;32042;50.916;2.926;2022-08-03T01:39:28;2.97;;;1.52;;
46318;SDS011;32042;50.916;2.926;2022-08-03T01:41:57;3.22;;;1.70;;
46318;SDS011;32042;50.916;2.926;2022-08-03T01:44:25;3.20;;;2.00;;
46318;SDS011;32042;50.916;2.926;2022-08-03T01:46:51;8.45;;;1.92;;
46318;SDS011;32042;50.916;2.926;2022-08-03T01:49:19;3.38;;;1.80;;
46318;SDS011;32042;50.916;2.926;2022-08-03T01:51:46;5.97;;;1.92;;
46318;SDS011;32042;50.916;2.926;2022-08-03T01:54:12;2.00;;;1.60;;
46318;SDS011;32042;50.916;2.926;2022-08-03T01:56:39;7.18;;;2.00;;
46318;SDS011;32042;50.916;2.926;2022-08-03T01:59:06;5.07;;;1.95;;
46318;SDS011;32042;50.916;2.926;2022-08-03T02:01:33;5.38;;;1.77;;
46318;SDS011;32042;50.916;2.926;2022-08-03T02:03:59;6.20;;;2.15;;
46318;SDS011;32042;50.916;2.926;2022-08-03T02:06:26;4.25;;;1.80;;
46318;SDS011;32042;50.916;2.926;2022-08-03T02:08:52;4.88;;;1.92;;
46318;SDS011;32042;50.916;2.926;2022-08-03T02:11:19;4.85;;;2.05;;
46318;SDS011;32042;50.916;2.926;2022-08-03T02:13:45;3.88;;;1.98;;
46318;SDS011;32042;50.916;2.926;2022-08-03T02:16:12;6.50;;;1.75;;
46318;SDS011;32042;50.916;2.926;2022-08-03T02:18:39;4.07;;;2.08;;
46318;SDS011;32042;50.916;2.926;2022-08-03T02:21:06;3.50;;;2.20;;
46318;SDS011;32042;50.916;2.926;2022-08-03T02:23:34;4.20;;;2.15;;
46318;SDS011;32042;50.916;2.926;2022-08-03T02:26:01;4.38;;;1.90;;
46318;SDS011;32042;50.916;2.926;2022-08-03T02:28:31;6.72;;;2.20;;
46318;SDS011;32042;50.916;2.926;2022-08-03T02:31:01;4.20;;;1.75;;
46318;SDS011;32042;50.916;2.926;2022-08-03T02:33:33;5.47;;;1.60;;
46318;SDS011;32042;50.916;2.926;2022-08-03T02:36:01;9.38;;;2.63;;
46318;SDS011;32042;50.916;2.926;2022-08-03T02:38:34;4.50;;;2.05;;
46318;SDS011;32042;50.916;2.926;2022-08-03T02:41:03;6.90;;;2.47;;
46318;SDS011;32042;50.916;2.926;2022-08-03T02:43:30;3.47;;;2.13;;
46318;SDS011;32042;50.916;2.926;2022-08-03T02:46:00;4.15;;;2.30;;
46318;SDS011;32042;50.916;2.926;2022-08-03T02:48:28;5.68;;;2.40;;
46318;SDS011;32042;50.916;2.926;2022-08-03T02:50:56;7.22;;;2.70;;
46318;SDS011;32042;50.916;2.926;2022-08-03T02:53:24;5.65;;;2.25;;
46318;SDS011;32042;50.916;2.926;2022-08-03T02:55:52;5.35;;;2.33;;
46318;SDS011;32042;50.916;2.926;2022-08-03T02:58:19;9.80;;;2.65;;
46318;SDS011;32042;50.916;2.926;2022-08-03T03:00:45;5.60;;;2.60;;
46318;SDS011;32042;50.916;2.926;2022-08-03T03:03:12;5.97;;;2.38;;
46318;SDS011;32042;50.916;2.926;2022-08-03T03:05:39;5.68;;;2.63;;
46318;SDS011;32042;50.916;2.926;2022-08-03T03:08:06;2.45;;;2.20;;
46318;SDS011;32042;50.916;2.926;2022-08-03T03:10:33;4.35;;;2.42;;
46318;SDS011;32042;50.916;2.926;2022-08-03T03:13:00;7.65;;;3.00;;
46318;SDS011;32042;50.916;2.926;2022-08-03T03:15:27;9.18;;;1.95;;
46318;SDS011;32042;50.916;2.926;2022-08-03T03:17:55;2.78;;;2.38;;
46318;SDS011;32042;50.916;2.926;2022-08-03T03:20:22;4.18;;;2.08;;
46318;SDS011;32042;50.916;2.926;2022-08-03T03:22:48;4.57;;;2.10;;
46318;SDS011;32042;50.916;2.926;2022-08-03T03:25:15;2.17;;;1.90;;
46318;SDS011;32042;50.916;2.926;2022-08-03T03:27:41;5.38;;;2.50;;
46318;SDS011;32042;50.916;2.926;2022-08-03T03:30:07;4.38;;;2.35;;
46318;SDS011;32042;50.916;2.926;2022-08-03T03:32:34;4.25;;;2.08;;
46318;SDS011;32042;50.916;2.926;2022-08-03T03:35:04;7.85;;;2.42;;
46318;SDS011;32042;50.916;2.926;2022-08-03T03:37:30;4.43;;;2.63;;
46318;SDS011;32042;50.916;2.926;2022-08-03T03:39:56;12.30;;;3.20;;
46318;SDS011;32042;50.916;2.926;2022-08-03T03:42:23;7.80;;;2.85;;
46318;SDS011;32042;50.916;2.926;2022-08-03T03:44:49;7.30;;;3.15;;
46318;SDS011;32042;50.916;2.926;2022-08-03T03:47:16;5.25;;;3.30;;
46318;SDS011;32042;50.916;2.926;2022-08-03T03:49:42;6.88;;;2.67;;
46318;SDS011;32042;50.916;2.926;2022-08-03T03:52:09;5.40;;;2.95;;
46318;SDS011;32042;50.916;2.926;2022-08-03T03:54:41;12.15;;;3.60;;
46318;SDS011;32042;50.916;2.926;2022-08-03T03:57:08;4.35;;;2.67;;
46318;SDS011;32042;50.916;2.926;2022-08-03T03:59:41;5.93;;;2.35;;
46318;SDS011;32042;50.916;2.926;2022-08-03T04:02:08;5.60;;;2.88;;
46318;SDS011;32042;50.916;2.926;2022-08-03T04:04:34;6.45;;;2.60;;
46318;SDS011;32042;50.916;2.926;2022-08-03T04:07:20;6.15;;;2.40;;
46318;SDS011;32042;50.916;2.926;2022-08-03T04:10:09;9.02;;;2.45;;
46318;SDS011;32042;50.916;2.926;2022-08-03T04:12:56;3.00;;;2.60;;
46318;SDS011;32042;50.916;2.926;2022-08-03T04:15:23;7.38;;;2.88;;
46318;SDS011;32042;50.916;2.926;2022-08-03T04:17:50;9.15;;;3.15;;
46318;SDS011;32042;50.916;2.926;2022-08-03T04:20:17;7.72;;;2.58;;
46318;SDS011;32042;50.916;2.926;2022-08-03T04:22:44;5.93;;;2.85;;
46318;SDS011;32042;50.916;2.926;2022-08-03T04:25:13;6.97;;;3.03;;
46318;SDS011;32042;50.916;2.926;2022-08-03T04:27:43;8.93;;;2.85;;
46318;SDS011;32042;50.916;2.926;2022-08-03T04:30:09;7.88;;;2.50;;
46318;SDS011;32042;50.916;2.926;2022-08-03T04:32:36;9.40;;;3.28;;
46318;SDS011;32042;50.916;2.926;2022-08-03T04:35:04;8.73;;;2.88;;
46318;SDS011;32042;50.916;2.926;2022-08-03T04:39:57;12.70;;;2.50;;
46318;SDS011;32042;50.916;2.926;2022-08-03T04:42:25;9.27;;;3.47;;
46318;SDS011;32042;50.916;2.926;2022-08-03T04:44:51;5.28;;;2.60;;
46318;SDS011;32042;50.916;2.926;2022-08-03T04:47:18;6.60;;;2.42;;
46318;SDS011;32042;50.916;2.926;2022-08-03T04:49:45;6.63;;;2.95;;
46318;SDS011;32042;50.916;2.926;2022-08-03T04:52:11;9.45;;;3.33;;
46318;SDS011;32042;50.916;2.926;2022-08-03T04:54:40;5.03;;;2.78;;
46318;SDS011;32042;50.916;2.926;2022-08-03T04:57:07;3.65;;;2.22;;
46318;SDS011;32042;50.916;2.926;2022-08-03T04:59:33;9.25;;;2.65;;
46318;SDS011;32042;50.916;2.926;2022-08-03T05:01:59;6.43;;;3.15;;
46318;SDS011;32042;50.916;2.926;2022-08-03T05:04:25;7.28;;;2.60;;
46318;SDS011;32042;50.916;2.926;2022-08-03T05:06:51;6.35;;;2.63;;
46318;SDS011;32042;50.916;2.926;2022-08-03T05:09:17;10.70;;;3.97;;
46318;SDS011;32042;50.916;2.926;2022-08-03T05:11:43;8.70;;;3.22;;
46318;SDS011;32042;50.916;2.926;2022-08-03T05:14:09;7.13;;;2.90;;
46318;SDS011;32042;50.916;2.926;2022-08-03T05:16:35;8.00;;;3.47;;
46318;SDS011;32042;50.916;2.926;2022-08-03T05:19:01;9.50;;;3.40;;
46318;SDS011;32042;50.916;2.926;2022-08-03T05:21:27;5.55;;;3.55;;
46318;SDS011;32042;50.916;2.926;2022-08-03T05:23:53;7.00;;;3.58;;
46318;SDS011;32042;50.916;2.926;2022-08-03T05:26:19;7.38;;;3.25;;
46318;SDS011;32042;50.916;2.926;2022-08-03T05:28:45;8.15;;;3.40;;
46318;SDS011;32042;50.916;2.926;2022-08-03T05:31:11;7.93;;;2.67;;
46318;SDS011;32042;50.916;2.926;2022-08-03T05:33:38;9.57;;;3.15;;
46318;SDS011;32042;50.916;2.926;2022-08-03T05:36:04;8.52;;;3.35;;
46318;SDS011;32042;50.916;2.926;2022-08-03T05:38:31;5.75;;;3.33;;
46318;SDS011;32042;50.916;2.926;2022-08-03T05:40:57;5.10;;;3.00;;
46318;SDS011;32042;50.916;2.926;2022-08-03T05:43:23;5.57;;;3.13;;
46318;SDS011;32042;50.916;2.926;2022-08-03T05:45:49;14.80;;;3.15;;
46318;SDS011;32042;50.916;2.926;2022-08-03T05:48:15;8.80;;;3.20;;
46318;SDS011;32042;50.916;2.926;2022-08-03T05:50:41;9.43;;;3.15;;
46318;SDS011;32042;50.916;2.926;2022-08-03T05:53:07;8.48;;;2.88;;
46318;SDS011;32042;50.916;2.926;2022-08-03T05:55:33;8.73;;;3.47;;
46318;SDS011;32042;50.916;2.926;2022-08-03T05:57:59;11.43;;;3.10;;
46318;SDS011;32042;50.916;2.926;2022-08-03T06:00:27;7.57;;;3.05;;
46318;SDS011;32042;50.916;2.926;2022-08-03T06:02:54;12.02;;;3.30;;
46318;SDS011;32042;50.916;2.926;2022-08-03T06:05:21;10.80;;;2.83;;
46318;SDS011;32042;50.916;2.926;2022-08-03T06:07:47;8.82;;;2.97;;
46318;SDS011;32042;50.916;2.926;2022-08-03T06:10:13;8.57;;;2.85;;
46318;SDS011;32042;50.916;2.926;2022-08-03T06:12:39;7.68;;;3.25;;
46318;SDS011;32042;50.916;2.926;2022-08-03T06:15:06;12.40;;;3.72;;
46318;SDS011;32042;50.916;2.926;2022-08-03T06:17:32;8.02;;;3.13;;
46318;SDS011;32042;50.916;2.926;2022-08-03T06:19:58;8.90;;;3.30;;
46318;SDS011;32042;50.916;2.926;2022-08-03T06:22:24;8.68;;;3.22;;
46318;SDS011;32042;50.916;2.926;2022-08-03T06:24:50;10.38;;;3.67;;
46318;SDS011;32042;50.916;2.926;2022-08-03T06:27:16;9.18;;;3.03;;
46318;SDS011;32042;50.916;2.926;2022-08-03T06:29:42;7.03;;;3.42;;
46318;SDS011;32042;50.916;2.926;2022-08-03T06:32:08;10.30;;;3.10;;
46318;SDS011;32042;50.916;2.926;2022-08-03T06:34:34;6.05;;;3.25;;
46318;SDS011;32042;50.916;2.926;2022-08-03T06:37:00;12.68;;;4.07;;
46318;SDS011;32042;50.916;2.926;2022-08-03T06:39:26;13.43;;;3.70;;
46318;SDS011;32042;50.916;2.926;2022-08-03T06:41:52;7.40;;;3.38;;
46318;SDS011;32042;50.916;2.926;2022-08-03T06:44:18;9.60;;;3.50;;
46318;SDS011;32042;50.916;2.926;2022-08-03T06:46:44;9.10;;;2.63;;
46318;SDS011;32042;50.916;2.926;2022-08-03T06:49:11;10.85;;;3.15;;
46318;SDS011;32042;50.916;2.926;2022-08-03T06:51:37;7.18;;;3.42;;
46318;SDS011;32042;50.916;2.926;2022-08-03T06:54:03;13.13;;;3.47;;
46318;SDS011;32042;50.916;2.926;2022-08-03T06:56:29;11.02;;;2.95;;
46318;SDS011;32042;50.916;2.926;2022-08-03T06:58:56;7.90;;;3.25;;
46318;SDS011;32042;50.916;2.926;2022-08-03T07:01:22;12.13;;;3.58;;
46318;SDS011;32042;50.916;2.926;2022-08-03T07:03:48;6.50;;;2.70;;
46318;SDS011;32042;50.916;2.926;2022-08-03T07:06:14;8.95;;;2.92;;
46318;SDS011;32042;50.916;2.926;2022-08-03T07:08:40;7.25;;;2.80;;
46318;SDS011;32042;50.916;2.926;2022-08-03T07:11:06;11.02;;;2.97;;
46318;SDS011;32042;50.916;2.926;2022-08-03T07:13:32;8.80;;;2.70;;
46318;SDS011;32042;50.916;2.926;2022-08-03T07:15:58;9.35;;;2.85;;
46318;SDS011;32042;50.916;2.926;2022-08-03T07:18:24;12.18;;;2.80;;
46318;SDS011;32042;50.916;2.926;2022-08-03T07:20:50;5.53;;;2.78;;
46318;SDS011;32042;50.916;2.926;2022-08-03T07:23:16;8.35;;;3.05;;
46318;SDS011;32042;50.916;2.926;2022-08-03T07:25:42;7.13;;;2.50;;
46318;SDS011;32042;50.916;2.926;2022-08-03T07:28:08;7.97;;;2.83;;
46318;SDS011;32042;50.916;2.926;2022-08-03T07:30:34;8.07;;;2.65;;
46318;SDS011;32042;50.916;2.926;2022-08-03T07:33:00;9.95;;;2.40;;
46318;SDS011;32042;50.916;2.926;2022-08-03T07:35:26;8.65;;;2.30;;
46318;SDS011;32042;50.916;2.926;2022-08-03T07:37:52;6.20;;;2.10;;
46318;SDS011;32042;50.916;2.926;2022-08-03T07:40:18;9.48;;;3.03;;
46318;SDS011;32042;50.916;2.926;2022-08-03T07:42:45;10.48;;;2.88;;
46318;SDS011;32042;50.916;2.926;2022-08-03T07:45:11;6.15;;;2.10;;
46318;SDS011;32042;50.916;2.926;2022-08-03T07:47:37;10.10;;;2.80;;
46318;SDS011;32042;50.916;2.926;2022-08-03T07:50:04;7.13;;;2.40;;
46318;SDS011;32042;50.916;2.926;2022-08-03T07:52:30;12.40;;;2.72;;
46318;SDS011;32042;50.916;2.926;2022-08-03T07:55:21;8.57;;;2.38;;
46318;SDS011;32042;50.916;2.926;2022-08-03T07:57:58;7.50;;;2.45;;
46318;SDS011;32042;50.916;2.926;2022-08-03T08:00:24;9.68;;;2.47;;
46318;SDS011;32042;50.916;2.926;2022-08-03T08:02:50;8.82;;;2.05;;
46318;SDS011;32042;50.916;2.926;2022-08-03T08:05:16;10.15;;;2.53;;
46318;SDS011;32042;50.916;2.926;2022-08-03T08:07:42;13.75;;;2.33;;
46318;SDS011;32042;50.916;2.926;2022-08-03T08:10:08;7.82;;;2.17;;
46318;SDS011;32042;50.916;2.926;2022-08-03T08:12:35;5.88;;;2.15;;
46318;SDS011;32042;50.916;2.926;2022-08-03T08:15:02;10.02;;;1.90;;
46318;SDS011;32042;50.916;2.926;2022-08-03T08:17:28;7.72;;;2.42;;
46318;SDS011;32042;50.916;2.926;2022-08-03T08:19:54;11.25;;;1.83;;
46318;SDS011;32042;50.916;2.926;2022-08-03T08:22:20;10.32;;;2.65;;
46318;SDS011;32042;50.916;2.926;2022-08-03T08:24:46;13.05;;;2.58;;
46318;SDS011;32042;50.916;2.926;2022-08-03T08:27:13;9.65;;;1.85;;
46318;SDS011;32042;50.916;2.926;2022-08-03T08:29:39;7.53;;;1.70;;
46318;SDS011;32042;50.916;2.926;2022-08-03T08:32:05;6.88;;;1.83;;
46318;SDS011;32042;50.916;2.926;2022-08-03T08:34:31;12.98;;;2.00;;
46318;SDS011;32042;50.916;2.926;2022-08-03T08:36:57;10.10;;;2.00;;
46318;SDS011;32042;50.916;2.926;2022-08-03T08:39:23;9.20;;;2.35;;
46318;SDS011;32042;50.916;2.926;2022-08-03T08:41:50;9.40;;;2.03;;
46318;SDS011;32042;50.916;2.926;2022-08-03T08:44:16;5.90;;;2.00;;
46318;SDS011;32042;50.916;2.926;2022-08-03T08:46:42;11.68;;;2.30;;
46318;SDS011;32042;50.916;2.926;2022-08-03T08:49:09;11.30;;;2.20;;
46318;SDS011;32042;50.916;2.926;2022-08-03T08:51:36;9.80;;;2.72;;
46318;SDS011;32042;50.916;2.926;2022-08-03T08:54:06;12.18;;;2.40;;
46318;SDS011;32042;50.916;2.926;2022-08-03T08:56:32;12.90;;;2.60;;
46318;SDS011;32042;50.916;2.926;2022-08-03T08:58:59;4.38;;;1.73;;
46318;SDS011;32042;50.916;2.926;2022-08-03T09:01:26;8.20;;;2.20;;
46318;SDS011;32042;50.916;2.926;2022-08-03T09:03:52;11.15;;;2.33;;
46318;SDS011;32042;50.916;2.926;2022-08-03T09:06:19;10.20;;;2.10;;
46318;SDS011;32042;50.916;2.926;2022-08-03T09:08:45;11.63;;;2.20;;
46318;SDS011;32042;50.916;2.926;2022-08-03T09:11:11;8.85;;;2.80;;
46318;SDS011;32042;50.916;2.926;2022-08-03T09:13:37;11.90;;;2.17;;
46318;SDS011;32042;50.916;2.926;2022-08-03T09:16:13;10.07;;;2.10;;
46318;SDS011;32042;50.916;2.926;2022-08-03T09:18:40;11.82;;;1.90;;
46318;SDS011;32042;50.916;2.926;2022-08-03T09:21:17;9.10;;;2.10;;
46318;SDS011;32042;50.916;2.926;2022-08-03T09:23:50;6.57;;;1.98;;
46318;SDS011;32042;50.916;2.926;2022-08-03T09:28:46;7.88;;;2.05;;
46318;SDS011;32042;50.916;2.926;2022-08-03T09:31:19;9.85;;;2.25;;
46318;SDS011;32042;50.916;2.926;2022-08-03T09:33:45;12.30;;;2.30;;
46318;SDS011;32042;50.916;2.926;2022-08-03T09:36:32;8.75;;;1.65;;
46318;SDS011;32042;50.916;2.926;2022-08-03T09:39:01;14.38;;;2.45;;
46318;SDS011;32042;50.916;2.926;2022-08-03T09:41:29;8.90;;;2.53;;
46318;SDS011;32042;50.916;2.926;2022-08-03T09:43:55;9.25;;;2.08;;
46318;SDS011;32042;50.916;2.926;2022-08-03T09:46:22;10.23;;;1.83;;
46318;SDS011;32042;50.916;2.926;2022-08-03T09:48:48;8.75;;;1.80;;
46318;SDS011;32042;50.916;2.926;2022-08-03T09:51:14;7.97;;;1.80;;
46318;SDS011;32042;50.916;2.926;2022-08-03T09:53:43;8.68;;;1.60;;
46318;SDS011;32042;50.916;2.926;2022-08-03T09:56:09;10.73;;;1.83;;
46318;SDS011;32042;50.916;2.926;2022-08-03T09:58:43;5.13;;;1.80;;
46318;SDS011;32042;50.916;2.926;2022-08-03T10:01:10;6.72;;;2.08;;
46318;SDS011;32042;50.916;2.926;2022-08-03T10:03:37;5.45;;;2.17;;
46318;SDS011;32042;50.916;2.926;2022-08-03T10:08:43;9.65;;;2.35;;
46318;SDS011;32042;50.916;2.926;2022-08-03T10:11:09;9.68;;;1.88;;
46318;SDS011;32042;50.916;2.926;2022-08-03T10:13:35;7.68;;;2.10;;
46318;SDS011;32042;50.916;2.926;2022-08-03T10:16:02;5.63;;;1.90;;
46318;SDS011;32042;50.916;2.926;2022-08-03T10:18:30;4.68;;;1.65;;
46318;SDS011;32042;50.916;2.926;2022-08-03T10:21:06;5.28;;;1.42;;
46318;SDS011;32042;50.916;2.926;2022-08-03T10:23:34;8.00;;;1.90;;
46318;SDS011;32042;50.916;2.926;2022-08-03T10:26:02;12.55;;;2.25;;
46318;SDS011;32042;50.916;2.926;2022-08-03T10:28:32;7.00;;;1.77;;
46318;SDS011;32042;50.916;2.926;2022-08-03T10:30:59;10.85;;;1.73;;
46318;SDS011;32042;50.916;2.926;2022-08-03T10:33:27;5.18;;;1.50;;
46318;SDS011;32042;50.916;2.926;2022-08-03T10:35:54;5.03;;;1.60;;
46318;SDS011;32042;50.916;2.926;2022-08-03T10:38:23;8.85;;;1.70;;
46318;SDS011;32042;50.916;2.926;2022-08-03T10:40:52;6.00;;;1.90;;
46318;SDS011;32042;50.916;2.926;2022-08-03T10:43:25;6.43;;;1.80;;
46318;SDS011;32042;50.916;2.926;2022-08-03T10:45:52;8.25;;;1.90;;
46318;SDS011;32042;50.916;2.926;2022-08-03T10:48:18;7.55;;;1.60;;
46318;SDS011;32042;50.916;2.926;2022-08-03T10:50:45;8.13;;;1.80;;
46318;SDS011;32042;50.916;2.926;2022-08-03T10:53:13;7.13;;;1.52;;
46318;SDS011;32042;50.916;2.926;2022-08-03T10:55:42;7.38;;;1.85;;
46318;SDS011;32042;50.916;2.926;2022-08-03T11:01:07;7.57;;;2.35;;
46318;SDS011;32042;50.916;2.926;2022-08-03T11:03:34;5.90;;;1.95;;
46318;SDS011;32042;50.916;2.926;2022-08-03T11:06:21;7.53;;;1.85;;
46318;SDS011;32042;50.916;2.926;2022-08-03T11:08:49;8.32;;;1.75;;
46318;SDS011;32042;50.916;2.926;2022-08-03T11:16:33;6.85;;;1.40;;
46318;SDS011;32042;50.916;2.926;2022-08-03T11:19:03;4.97;;;1.40;;
46318;SDS011;32042;50.916;2.926;2022-08-03T11:37:35;4.38;;;1.67;;
46318;SDS011;32042;50.916;2.926;2022-08-03T11:40:02;5.13;;;1.67;;
46318;SDS011;32042;50.916;2.926;2022-08-03T11:44:58;3.55;;;1.77;;
46318;SDS011;32042;50.916;2.926;2022-08-03T11:47:25;8.18;;;1.38;;
46318;SDS011;32042;50.916;2.926;2022-08-03T11:49:58;5.97;;;1.65;;
46318;SDS011;32042;50.916;2.926;2022-08-03T11:52:26;4.90;;;1.27;;
46318;SDS011;32042;50.916;2.926;2022-08-03T11:54:52;3.75;;;1.40;;
46318;SDS011;32042;50.916;2.926;2022-08-03T11:57:31;5.47;;;1.73;;
46318;SDS011;32042;50.916;2.926;2022-08-03T11:59:58;4.28;;;1.27;;
46318;SDS011;32042;50.916;2.926;2022-08-03T12:02:24;6.40;;;1.60;;
46318;SDS011;32042;50.916;2.926;2022-08-03T12:07:16;8.68;;;1.85;;
46318;SDS011;32042;50.916;2.926;2022-08-03T12:09:43;3.53;;;1.50;;
46318;SDS011;32042;50.916;2.926;2022-08-03T12:12:09;4.72;;;1.65;;
46318;SDS011;32042;50.916;2.926;2022-08-03T12:14:35;5.18;;;1.67;;
46318;SDS011;32042;50.916;2.926;2022-08-03T12:17:01;4.15;;;1.45;;
46318;SDS011;32042;50.916;2.926;2022-08-03T12:19:37;7.03;;;1.75;;
46318;SDS011;32042;50.916;2.926;2022-08-03T12:22:06;4.80;;;1.65;;
46318;SDS011;32042;50.916;2.926;2022-08-03T12:24:39;6.80;;;1.63;;
46318;SDS011;32042;50.916;2.926;2022-08-03T12:27:06;4.40;;;1.42;;
46318;SDS011;32042;50.916;2.926;2022-08-03T12:29:32;7.07;;;1.52;;
46318;SDS011;32042;50.916;2.926;2022-08-03T12:31:58;2.83;;;1.30;;
46318;SDS011;32042;50.916;2.926;2022-08-03T12:34:43;5.60;;;1.50;;
46318;SDS011;32042;50.916;2.926;2022-08-03T12:37:09;2.78;;;1.08;;
46318;SDS011;32042;50.916;2.926;2022-08-03T12:39:35;3.60;;;1.42;;
46318;SDS011;32042;50.916;2.926;2022-08-03T12:42:02;6.80;;;1.30;;
46318;SDS011;32042;50.916;2.926;2022-08-03T12:44:32;5.93;;;1.40;;
46318;SDS011;32042;50.916;2.926;2022-08-03T12:46:59;3.50;;;1.27;;
46318;SDS011;32042;50.916;2.926;2022-08-03T12:49:26;5.75;;;1.90;;
46318;SDS011;32042;50.916;2.926;2022-08-03T12:54:20;11.25;;;1.70;;
46318;SDS011;32042;50.916;2.926;2022-08-03T12:59:25;5.75;;;1.27;;
46318;SDS011;32042;50.916;2.926;2022-08-03T13:01:52;6.53;;;1.48;;
46318;SDS011;32042;50.916;2.926;2022-08-03T13:04:25;5.75;;;1.35;;
46318;SDS011;32042;50.916;2.926;2022-08-03T13:07:01;7.50;;;1.52;;
46318;SDS011;32042;50.916;2.926;2022-08-03T13:09:28;4.32;;;1.30;;
46318;SDS011;32042;50.916;2.926;2022-08-03T13:12:05;5.13;;;1.60;;
46318;SDS011;32042;50.916;2.926;2022-08-03T13:14:31;4.75;;;1.30;;
46318;SDS011;32042;50.916;2.926;2022-08-03T13:16:57;10.27;;;1.25;;
46318;SDS011;32042;50.916;2.926;2022-08-03T13:19:23;5.10;;;1.50;;
46318;SDS011;32042;50.916;2.926;2022-08-03T13:21:49;5.43;;;1.17;;
46318;SDS011;32042;50.916;2.926;2022-08-03T13:24:16;5.38;;;1.25;;
46318;SDS011;32042;50.916;2.926;2022-08-03T13:26:43;7.28;;;1.27;;
46318;SDS011;32042;50.916;2.926;2022-08-03T13:29:09;3.35;;;1.30;;
46318;SDS011;32042;50.916;2.926;2022-08-03T13:31:35;6.72;;;1.40;;
46318;SDS011;32042;50.916;2.926;2022-08-03T13:34:01;3.58;;;0.90;;
46318;SDS011;32042;50.916;2.926;2022-08-03T13:36:27;4.65;;;1.17;;
46318;SDS011;32042;50.916;2.926;2022-08-03T13:38:53;6.13;;;0.90;;
46318;SDS011;32042;50.916;2.926;2022-08-03T13:41:19;3.13;;;1.00;;
46318;SDS011;32042;50.916;2.926;2022-08-03T13:43:46;5.20;;;1.45;;
46318;SDS011;32042;50.916;2.926;2022-08-03T13:46:12;4.72;;;1.17;;
46318;SDS011;32042;50.916;2.926;2022-08-03T13:48:38;5.88;;;1.15;;
46318;SDS011;32042;50.916;2.926;2022-08-03T13:51:04;6.57;;;1.13;;
46318;SDS011;32042;50.916;2.926;2022-08-03T13:53:30;4.75;;;1.20;;
46318;SDS011;32042;50.916;2.926;2022-08-03T13:55:56;4.95;;;1.20;;
46318;SDS011;32042;50.916;2.926;2022-08-03T13:58:22;4.07;;;1.60;;
46318;SDS011;32042;50.916;2.926;2022-08-03T14:00:48;2.17;;;1.00;;
46318;SDS011;32042;50.916;2.926;2022-08-03T14:03:14;2.90;;;1.13;;
46318;SDS011;32042;50.916;2.926;2022-08-03T14:05:43;4.60;;;1.00;;
46318;SDS011;32042;50.916;2.926;2022-08-03T14:08:10;4.00;;;0.88;;
46318;SDS011;32042;50.916;2.926;2022-08-03T14:10:37;2.90;;;0.93;;
46318;SDS011;32042;50.916;2.926;2022-08-03T14:13:03;4.63;;;1.15;;
46318;SDS011;32042;50.916;2.926;2022-08-03T14:15:30;4.65;;;0.80;;
46318;SDS011;32042;50.916;2.926;2022-08-03T14:17:56;2.08;;;0.95;;
46318;SDS011;32042;50.916;2.926;2022-08-03T14:20:22;3.38;;;0.90;;
46318;SDS011;32042;50.916;2.926;2022-08-03T14:22:48;2.88;;;1.02;;
46318;SDS011;32042;50.916;2.926;2022-08-03T14:25:14;6.07;;;0.80;;
46318;SDS011;32042;50.916;2.926;2022-08-03T14:27:40;3.33;;;0.90;;
46318;SDS011;32042;50.916;2.926;2022-08-03T14:30:07;4.10;;;1.10;;
46318;SDS011;32042;50.916;2.926;2022-08-03T14:32:33;2.53;;;1.05;;
46318;SDS011;32042;50.916;2.926;2022-08-03T14:34:59;4.25;;;1.02;;
46318;SDS011;32042;50.916;2.926;2022-08-03T14:37:25;3.67;;;1.05;;
46318;SDS011;32042;50.916;2.926;2022-08-03T14:39:51;4.13;;;0.98;;
46318;SDS011;32042;50.916;2.926;2022-08-03T14:42:17;6.93;;;0.88;;
46318;SDS011;32042;50.916;2.926;2022-08-03T14:44:44;2.53;;;0.80;;
46318;SDS011;32042;50.916;2.926;2022-08-03T14:47:10;3.30;;;0.95;;
46318;SDS011;32042;50.916;2.926;2022-08-03T14:49:36;3.63;;;1.20;;
46318;SDS011;32042;50.916;2.926;2022-08-03T14:52:03;5.97;;;0.98;;
46318;SDS011;32042;50.916;2.926;2022-08-03T14:54:29;2.15;;;0.90;;
46318;SDS011;32042;50.916;2.926;2022-08-03T14:56:55;2.17;;;0.70;;
46318;SDS011;32042;50.916;2.926;2022-08-03T14:59:22;2.85;;;1.08;;
46318;SDS011;32042;50.916;2.926;2022-08-03T15:01:48;4.40;;;0.90;;
46318;SDS011;32042;50.916;2.926;2022-08-03T15:04:14;4.07;;;0.85;;
46318;SDS011;32042;50.916;2.926;2022-08-03T15:06:40;4.47;;;1.10;;
46318;SDS011;32042;50.916;2.926;2022-08-03T15:09:07;5.47;;;1.00;;
46318;SDS011;32042;50.916;2.926;2022-08-03T15:11:33;3.45;;;1.23;;
46318;SDS011;32042;50.916;2.926;2022-08-03T15:14:00;6.10;;;1.20;;
46318;SDS011;32042;50.916;2.926;2022-08-03T15:16:26;8.55;;;1.20;;
46318;SDS011;32042;50.916;2.926;2022-08-03T15:18:52;3.53;;;0.90;;
46318;SDS011;32042;50.916;2.926;2022-08-03T15:21:18;4.05;;;1.17;;
46318;SDS011;32042;50.916;2.926;2022-08-03T15:23:44;2.83;;;0.90;;
46318;SDS011;32042;50.916;2.926;2022-08-03T15:26:11;1.17;;;0.60;;
46318;SDS011;32042;50.916;2.926;2022-08-03T15:28:37;4.50;;;1.02;;
46318;SDS011;32042;50.916;2.926;2022-08-03T15:31:03;3.08;;;0.90;;
46318;SDS011;32042;50.916;2.926;2022-08-03T15:33:29;3.83;;;0.90;;
46318;SDS011;32042;50.916;2.926;2022-08-03T15:35:55;4.40;;;0.90;;
46318;SDS011;32042;50.916;2.926;2022-08-03T15:38:22;4.05;;;1.13;;
46318;SDS011;32042;50.916;2.926;2022-08-03T15:40:48;7.78;;;1.27;;
46318;SDS011;32042;50.916;2.926;2022-08-03T15:43:14;3.10;;;1.08;;